LZZI METAR and TAF | Updated Today

LZZI METAR

Žilina Airport

Observation time: 15 min. ago

LZZI 241900Z VRB01KT CAVOK 17/13 Q1011

Need help? Read our tutorial on how to read METARs or read the parsed version below.

Žilina Airport (LZZI) METAR

  • Weather conditions on Tue, 24 May 2022 19:00:00 +0000 (15 min. ago):
  • Present conditions: Dry
  • Clouds: Clear skies
  • Visibility: Greater than 10 km
  • Wind: Variable at 1 knots
  • Temperature: 17 celsius
  • Dew point: 13 celsius
  • Pressure: 1011 millibars
  • Remarks: None


Useful to know...

LZZI TAF

Žilina Airport

TAF LZZI 241715Z 2418/2503 VRB02KT 9999 FEW037 PROB30 TEMPO 2421/2503 5000 RA BKN012 BKN027
Observation time: 2:00 hr. ago
Need help? Read our tutorial on how to read TAFs or read the parsed version below.

Parsed version of TAF for Žilina Airport (LZZI)

  • From 24 May at 18:00 UTC, to day 25 of the month at 03:00 UTC
  • Clouds: A few at 1128 meters
  • Visibility: Greater than 10 km
  • Wind: Variable at 2
  • Expected to arise temporarily, from 24 May at 21:00 UTC, to day 25 of the month at 03:00 UTC
    Probability of 30%
  • Clouds: Broken sky at 366 meters; broken sky at 823 meters
  • Visibility: 5000 meters
  • Other: Rain